sensor_id;sensor_type;location;lat;lon;timestamp;P1;durP1;ratioP1;P2;durP2;ratioP2
12892;SDS011;6514;48.606;9.222;2023-04-01T00:01:27;1.77;;;0.73;;
12892;SDS011;6514;48.606;9.222;2023-04-01T00:03:55;2.20;;;0.97;;
12892;SDS011;6514;48.606;9.222;2023-04-01T00:06:22;2.57;;;0.90;;
12892;SDS011;6514;48.606;9.222;2023-04-01T00:08:49;3.77;;;1.07;;
12892;SDS011;6514;48.606;9.222;2023-04-01T00:11:17;2.60;;;0.93;;
12892;SDS011;6514;48.606;9.222;2023-04-01T00:13:44;3.53;;;0.80;;
12892;SDS011;6514;48.606;9.222;2023-04-01T00:16:11;4.83;;;0.80;;
12892;SDS011;6514;48.606;9.222;2023-04-01T00:18:38;2.43;;;1.37;;
12892;SDS011;6514;48.606;9.222;2023-04-01T00:21:06;1.97;;;1.10;;
12892;SDS011;6514;48.606;9.222;2023-04-01T00:23:33;2.17;;;0.70;;
12892;SDS011;6514;48.606;9.222;2023-04-01T00:26:01;2.70;;;0.80;;
12892;SDS011;6514;48.606;9.222;2023-04-01T00:28:28;2.93;;;0.83;;
12892;SDS011;6514;48.606;9.222;2023-04-01T00:30:56;2.63;;;0.60;;
12892;SDS011;6514;48.606;9.222;2023-04-01T00:33:22;3.67;;;0.73;;
12892;SDS011;6514;48.606;9.222;2023-04-01T00:35:49;4.63;;;0.80;;
12892;SDS011;6514;48.606;9.222;2023-04-01T00:38:17;1.43;;;0.60;;
12892;SDS011;6514;48.606;9.222;2023-04-01T00:40:45;3.87;;;0.87;;
12892;SDS011;6514;48.606;9.222;2023-04-01T00:43:13;3.13;;;0.73;;
12892;SDS011;6514;48.606;9.222;2023-04-01T00:45:44;1.20;;;0.53;;
12892;SDS011;6514;48.606;9.222;2023-04-01T00:48:13;1.50;;;0.50;;
12892;SDS011;6514;48.606;9.222;2023-04-01T00:50:43;0.93;;;0.50;;
12892;SDS011;6514;48.606;9.222;2023-04-01T00:53:13;1.57;;;0.77;;
12892;SDS011;6514;48.606;9.222;2023-04-01T00:55:45;1.17;;;0.70;;
12892;SDS011;6514;48.606;9.222;2023-04-01T00:58:24;4.17;;;0.70;;
12892;SDS011;6514;48.606;9.222;2023-04-01T01:00:52;1.17;;;0.60;;
12892;SDS011;6514;48.606;9.222;2023-04-01T01:03:21;1.17;;;0.80;;
12892;SDS011;6514;48.606;9.222;2023-04-01T01:08:38;2.23;;;0.90;;
12892;SDS011;6514;48.606;9.222;2023-04-01T01:11:17;2.97;;;0.80;;
12892;SDS011;6514;48.606;9.222;2023-04-01T01:13:50;2.20;;;0.73;;
12892;SDS011;6514;48.606;9.222;2023-04-01T01:16:24;0.93;;;0.50;;
12892;SDS011;6514;48.606;9.222;2023-04-01T01:18:55;1.83;;;0.60;;
12892;SDS011;6514;48.606;9.222;2023-04-01T01:21:33;2.70;;;0.70;;
12892;SDS011;6514;48.606;9.222;2023-04-01T01:24:39;1.83;;;0.83;;
12892;SDS011;6514;48.606;9.222;2023-04-01T01:27:17;1.33;;;0.50;;
12892;SDS011;6514;48.606;9.222;2023-04-01T01:33:01;1.43;;;0.43;;
12892;SDS011;6514;48.606;9.222;2023-04-01T01:35:48;1.60;;;0.60;;
12892;SDS011;6514;48.606;9.222;2023-04-01T01:38:18;2.13;;;0.70;;
12892;SDS011;6514;48.606;9.222;2023-04-01T01:40:48;0.97;;;0.60;;
12892;SDS011;6514;48.606;9.222;2023-04-01T01:43:19;2.93;;;0.80;;
12892;SDS011;6514;48.606;9.222;2023-04-01T01:45:50;1.73;;;0.30;;
12892;SDS011;6514;48.606;9.222;2023-04-01T01:48:20;3.03;;;0.43;;
12892;SDS011;6514;48.606;9.222;2023-04-01T01:50:49;2.50;;;0.50;;
12892;SDS011;6514;48.606;9.222;2023-04-01T01:53:17;1.40;;;0.60;;
12892;SDS011;6514;48.606;9.222;2023-04-01T01:55:44;1.17;;;0.37;;
12892;SDS011;6514;48.606;9.222;2023-04-01T01:58:13;2.57;;;0.70;;
12892;SDS011;6514;48.606;9.222;2023-04-01T02:00:46;2.73;;;0.67;;
12892;SDS011;6514;48.606;9.222;2023-04-01T02:03:17;1.40;;;0.70;;
12892;SDS011;6514;48.606;9.222;2023-04-01T02:05:48;0.90;;;0.33;;
12892;SDS011;6514;48.606;9.222;2023-04-01T02:08:17;1.90;;;0.50;;
12892;SDS011;6514;48.606;9.222;2023-04-01T02:10:49;2.60;;;0.57;;
12892;SDS011;6514;48.606;9.222;2023-04-01T02:13:23;3.27;;;0.50;;
12892;SDS011;6514;48.606;9.222;2023-04-01T02:15:56;0.97;;;0.40;;
12892;SDS011;6514;48.606;9.222;2023-04-01T02:18:26;1.13;;;0.33;;
12892;SDS011;6514;48.606;9.222;2023-04-01T02:20:57;1.90;;;0.40;;
12892;SDS011;6514;48.606;9.222;2023-04-01T02:23:26;1.00;;;0.50;;
12892;SDS011;6514;48.606;9.222;2023-04-01T02:25:54;0.57;;;0.40;;
12892;SDS011;6514;48.606;9.222;2023-04-01T02:28:22;0.87;;;0.40;;
12892;SDS011;6514;48.606;9.222;2023-04-01T02:30:50;2.27;;;0.37;;
12892;SDS011;6514;48.606;9.222;2023-04-01T02:33:17;0.63;;;0.30;;
12892;SDS011;6514;48.606;9.222;2023-04-01T02:35:46;0.97;;;0.53;;
12892;SDS011;6514;48.606;9.222;2023-04-01T02:38:14;1.27;;;0.57;;
12892;SDS011;6514;48.606;9.222;2023-04-01T02:40:42;1.80;;;0.40;;
12892;SDS011;6514;48.606;9.222;2023-04-01T02:43:11;0.67;;;0.33;;
12892;SDS011;6514;48.606;9.222;2023-04-01T02:45:38;0.60;;;0.60;;
12892;SDS011;6514;48.606;9.222;2023-04-01T02:48:05;0.60;;;0.40;;
12892;SDS011;6514;48.606;9.222;2023-04-01T02:50:32;1.60;;;0.60;;
12892;SDS011;6514;48.606;9.222;2023-04-01T02:52:59;0.50;;;0.27;;
12892;SDS011;6514;48.606;9.222;2023-04-01T02:55:29;0.83;;;0.30;;
12892;SDS011;6514;48.606;9.222;2023-04-01T02:57:56;0.40;;;0.40;;
12892;SDS011;6514;48.606;9.222;2023-04-01T03:00:23;1.13;;;0.40;;
12892;SDS011;6514;48.606;9.222;2023-04-01T03:02:50;1.87;;;0.50;;
12892;SDS011;6514;48.606;9.222;2023-04-01T03:05:17;1.13;;;0.50;;
12892;SDS011;6514;48.606;9.222;2023-04-01T03:07:44;0.37;;;0.37;;
12892;SDS011;6514;48.606;9.222;2023-04-01T03:10:11;0.97;;;0.37;;
12892;SDS011;6514;48.606;9.222;2023-04-01T03:12:40;0.40;;;0.40;;
12892;SDS011;6514;48.606;9.222;2023-04-01T03:15:08;1.10;;;0.40;;
12892;SDS011;6514;48.606;9.222;2023-04-01T03:17:36;0.93;;;0.40;;
12892;SDS011;6514;48.606;9.222;2023-04-01T03:20:03;1.03;;;0.40;;
12892;SDS011;6514;48.606;9.222;2023-04-01T03:22:31;0.57;;;0.47;;
12892;SDS011;6514;48.606;9.222;2023-04-01T03:24:58;0.73;;;0.27;;
12892;SDS011;6514;48.606;9.222;2023-04-01T03:27:25;0.60;;;0.30;;
12892;SDS011;6514;48.606;9.222;2023-04-01T03:29:53;0.80;;;0.30;;
12892;SDS011;6514;48.606;9.222;2023-04-01T03:32:20;0.70;;;0.40;;
12892;SDS011;6514;48.606;9.222;2023-04-01T03:34:47;0.50;;;0.50;;
12892;SDS011;6514;48.606;9.222;2023-04-01T03:37:13;0.50;;;0.50;;
12892;SDS011;6514;48.606;9.222;2023-04-01T03:39:40;0.60;;;0.57;;
12892;SDS011;6514;48.606;9.222;2023-04-01T03:42:07;0.43;;;0.30;;
12892;SDS011;6514;48.606;9.222;2023-04-01T03:44:34;0.77;;;0.30;;
12892;SDS011;6514;48.606;9.222;2023-04-01T03:47:02;0.70;;;0.30;;
12892;SDS011;6514;48.606;9.222;2023-04-01T03:49:29;0.43;;;0.43;;
12892;SDS011;6514;48.606;9.222;2023-04-01T03:51:57;0.53;;;0.43;;
12892;SDS011;6514;48.606;9.222;2023-04-01T03:54:24;0.70;;;0.30;;
12892;SDS011;6514;48.606;9.222;2023-04-01T03:56:51;0.30;;;0.30;;
12892;SDS011;6514;48.606;9.222;2023-04-01T03:59:18;0.30;;;0.30;;
12892;SDS011;6514;48.606;9.222;2023-04-01T04:01:46;0.57;;;0.40;;
12892;SDS011;6514;48.606;9.222;2023-04-01T04:04:18;0.40;;;0.40;;
12892;SDS011;6514;48.606;9.222;2023-04-01T04:06:45;1.70;;;0.50;;
12892;SDS011;6514;48.606;9.222;2023-04-01T04:09:13;0.60;;;0.40;;
12892;SDS011;6514;48.606;9.222;2023-04-01T04:11:40;0.57;;;0.40;;
12892;SDS011;6514;48.606;9.222;2023-04-01T04:14:06;0.40;;;0.37;;
12892;SDS011;6514;48.606;9.222;2023-04-01T04:16:34;0.70;;;0.43;;
12892;SDS011;6514;48.606;9.222;2023-04-01T04:19:02;0.60;;;0.40;;
12892;SDS011;6514;48.606;9.222;2023-04-01T04:21:31;1.33;;;0.40;;
12892;SDS011;6514;48.606;9.222;2023-04-01T04:23:58;0.73;;;0.40;;
12892;SDS011;6514;48.606;9.222;2023-04-01T04:26:25;0.30;;;0.30;;
12892;SDS011;6514;48.606;9.222;2023-04-01T04:28:53;1.10;;;0.80;;
12892;SDS011;6514;48.606;9.222;2023-04-01T04:31:20;1.93;;;0.37;;
12892;SDS011;6514;48.606;9.222;2023-04-01T04:33:48;1.27;;;0.40;;
12892;SDS011;6514;48.606;9.222;2023-04-01T04:36:16;1.00;;;0.40;;
12892;SDS011;6514;48.606;9.222;2023-04-01T04:38:44;1.13;;;0.50;;
12892;SDS011;6514;48.606;9.222;2023-04-01T04:41:12;0.93;;;0.40;;
12892;SDS011;6514;48.606;9.222;2023-04-01T04:43:40;0.70;;;0.50;;
12892;SDS011;6514;48.606;9.222;2023-04-01T04:46:07;0.87;;;0.50;;
12892;SDS011;6514;48.606;9.222;2023-04-01T04:48:35;0.60;;;0.60;;
12892;SDS011;6514;48.606;9.222;2023-04-01T04:51:02;2.67;;;0.83;;
12892;SDS011;6514;48.606;9.222;2023-04-01T04:53:29;2.10;;;0.77;;
12892;SDS011;6514;48.606;9.222;2023-04-01T04:55:57;1.63;;;0.33;;
12892;SDS011;6514;48.606;9.222;2023-04-01T04:58:24;1.83;;;0.47;;
12892;SDS011;6514;48.606;9.222;2023-04-01T05:00:51;0.87;;;0.57;;
12892;SDS011;6514;48.606;9.222;2023-04-01T05:03:18;1.50;;;0.60;;
12892;SDS011;6514;48.606;9.222;2023-04-01T05:05:48;1.23;;;0.60;;
12892;SDS011;6514;48.606;9.222;2023-04-01T05:08:16;1.83;;;0.60;;
12892;SDS011;6514;48.606;9.222;2023-04-01T05:10:43;2.57;;;0.57;;
12892;SDS011;6514;48.606;9.222;2023-04-01T05:13:12;1.70;;;0.63;;
12892;SDS011;6514;48.606;9.222;2023-04-01T05:15:39;2.57;;;0.83;;
12892;SDS011;6514;48.606;9.222;2023-04-01T05:18:06;1.93;;;0.73;;
12892;SDS011;6514;48.606;9.222;2023-04-01T05:20:32;1.57;;;0.40;;
12892;SDS011;6514;48.606;9.222;2023-04-01T05:22:59;1.47;;;0.43;;
12892;SDS011;6514;48.606;9.222;2023-04-01T05:25:27;2.30;;;0.60;;
12892;SDS011;6514;48.606;9.222;2023-04-01T05:27:54;0.77;;;0.50;;
12892;SDS011;6514;48.606;9.222;2023-04-01T05:30:22;1.20;;;0.47;;
12892;SDS011;6514;48.606;9.222;2023-04-01T05:32:49;2.33;;;0.97;;
12892;SDS011;6514;48.606;9.222;2023-04-01T05:35:25;1.90;;;1.10;;
12892;SDS011;6514;48.606;9.222;2023-04-01T05:37:52;2.00;;;0.90;;
12892;SDS011;6514;48.606;9.222;2023-04-01T05:40:19;1.00;;;0.90;;
12892;SDS011;6514;48.606;9.222;2023-04-01T05:42:46;3.27;;;1.97;;
12892;SDS011;6514;48.606;9.222;2023-04-01T05:45:13;2.30;;;1.20;;
12892;SDS011;6514;48.606;9.222;2023-04-01T05:47:42;2.13;;;1.40;;
12892;SDS011;6514;48.606;9.222;2023-04-01T05:50:09;4.93;;;1.73;;
12892;SDS011;6514;48.606;9.222;2023-04-01T05:52:36;8.70;;;4.47;;
12892;SDS011;6514;48.606;9.222;2023-04-01T05:55:04;4.57;;;2.30;;
12892;SDS011;6514;48.606;9.222;2023-04-01T05:57:31;3.97;;;2.17;;
12892;SDS011;6514;48.606;9.222;2023-04-01T05:59:58;4.83;;;2.90;;
12892;SDS011;6514;48.606;9.222;2023-04-01T06:02:25;2.40;;;1.87;;
12892;SDS011;6514;48.606;9.222;2023-04-01T06:04:54;2.70;;;1.90;;
12892;SDS011;6514;48.606;9.222;2023-04-01T06:07:29;4.97;;;2.43;;
12892;SDS011;6514;48.606;9.222;2023-04-01T06:09:56;2.57;;;1.47;;
12892;SDS011;6514;48.606;9.222;2023-04-01T06:12:31;2.97;;;1.27;;
12892;SDS011;6514;48.606;9.222;2023-04-01T06:15:16;1.70;;;1.10;;
12892;SDS011;6514;48.606;9.222;2023-04-01T06:17:56;0.70;;;0.50;;
12892;SDS011;6514;48.606;9.222;2023-04-01T06:20:37;1.20;;;1.07;;
12892;SDS011;6514;48.606;9.222;2023-04-01T06:26:15;3.37;;;2.10;;
12892;SDS011;6514;48.606;9.222;2023-04-01T06:31:47;1.17;;;0.67;;
12892;SDS011;6514;48.606;9.222;2023-04-01T06:34:32;2.93;;;2.10;;
12892;SDS011;6514;48.606;9.222;2023-04-01T06:37:22;1.00;;;0.80;;
12892;SDS011;6514;48.606;9.222;2023-04-01T06:40:06;1.47;;;0.90;;
12892;SDS011;6514;48.606;9.222;2023-04-01T06:42:53;1.40;;;1.13;;
12892;SDS011;6514;48.606;9.222;2023-04-01T06:45:32;2.27;;;1.40;;
12892;SDS011;6514;48.606;9.222;2023-04-01T06:48:10;1.33;;;0.80;;
12892;SDS011;6514;48.606;9.222;2023-04-01T06:50:48;2.80;;;1.30;;
12892;SDS011;6514;48.606;9.222;2023-04-01T06:53:28;2.67;;;0.97;;
12892;SDS011;6514;48.606;9.222;2023-04-01T06:56:02;0.60;;;0.40;;
12892;SDS011;6514;48.606;9.222;2023-04-01T06:58:34;0.80;;;0.40;;
12892;SDS011;6514;48.606;9.222;2023-04-01T07:01:04;0.87;;;0.63;;
12892;SDS011;6514;48.606;9.222;2023-04-01T07:03:35;1.57;;;1.10;;
12892;SDS011;6514;48.606;9.222;2023-04-01T07:06:08;1.00;;;0.40;;
12892;SDS011;6514;48.606;9.222;2023-04-01T07:08:40;0.70;;;0.60;;
12892;SDS011;6514;48.606;9.222;2023-04-01T07:11:10;0.70;;;0.50;;
12892;SDS011;6514;48.606;9.222;2023-04-01T07:13:44;1.83;;;0.60;;
12892;SDS011;6514;48.606;9.222;2023-04-01T07:16:16;0.90;;;0.50;;
12892;SDS011;6514;48.606;9.222;2023-04-01T07:18:47;1.40;;;0.40;;
12892;SDS011;6514;48.606;9.222;2023-04-01T07:21:25;1.53;;;0.83;;
12892;SDS011;6514;48.606;9.222;2023-04-01T07:23:59;2.10;;;0.50;;
12892;SDS011;6514;48.606;9.222;2023-04-01T07:26:30;1.23;;;0.60;;
12892;SDS011;6514;48.606;9.222;2023-04-01T07:28:57;2.37;;;1.33;;
12892;SDS011;6514;48.606;9.222;2023-04-01T07:31:28;1.10;;;0.60;;
12892;SDS011;6514;48.606;9.222;2023-04-01T07:34:06;1.23;;;0.63;;
12892;SDS011;6514;48.606;9.222;2023-04-01T07:36:39;1.90;;;0.73;;
12892;SDS011;6514;48.606;9.222;2023-04-01T07:39:16;1.53;;;0.67;;
12892;SDS011;6514;48.606;9.222;2023-04-01T07:41:51;1.00;;;0.40;;
12892;SDS011;6514;48.606;9.222;2023-04-01T07:44:25;0.40;;;0.40;;
12892;SDS011;6514;48.606;9.222;2023-04-01T07:47:03;1.63;;;0.60;;
12892;SDS011;6514;48.606;9.222;2023-04-01T07:49:40;1.20;;;0.50;;
12892;SDS011;6514;48.606;9.222;2023-04-01T07:52:14;2.33;;;0.70;;
12892;SDS011;6514;48.606;9.222;2023-04-01T07:54:48;1.00;;;0.80;;
12892;SDS011;6514;48.606;9.222;2023-04-01T07:57:19;1.77;;;0.60;;
12892;SDS011;6514;48.606;9.222;2023-04-01T07:59:51;1.53;;;0.70;;
12892;SDS011;6514;48.606;9.222;2023-04-01T08:02:28;1.30;;;0.50;;
12892;SDS011;6514;48.606;9.222;2023-04-01T08:05:07;1.00;;;0.53;;
12892;SDS011;6514;48.606;9.222;2023-04-01T08:07:43;0.90;;;0.57;;
12892;SDS011;6514;48.606;9.222;2023-04-01T08:10:17;2.13;;;0.60;;
12892;SDS011;6514;48.606;9.222;2023-04-01T08:12:48;1.63;;;0.57;;
12892;SDS011;6514;48.606;9.222;2023-04-01T08:15:26;0.93;;;0.60;;
12892;SDS011;6514;48.606;9.222;2023-04-01T08:17:58;1.70;;;0.67;;
12892;SDS011;6514;48.606;9.222;2023-04-01T08:20:37;2.70;;;0.80;;
12892;SDS011;6514;48.606;9.222;2023-04-01T08:23:11;3.10;;;0.90;;
12892;SDS011;6514;48.606;9.222;2023-04-01T08:25:42;2.00;;;0.70;;
12892;SDS011;6514;48.606;9.222;2023-04-01T08:28:15;0.93;;;0.50;;
12892;SDS011;6514;48.606;9.222;2023-04-01T08:30:48;1.40;;;0.50;;
12892;SDS011;6514;48.606;9.222;2023-04-01T08:33:19;0.90;;;0.63;;
12892;SDS011;6514;48.606;9.222;2023-04-01T08:35:51;1.33;;;0.53;;
12892;SDS011;6514;48.606;9.222;2023-04-01T08:38:22;1.17;;;0.50;;
12892;SDS011;6514;48.606;9.222;2023-04-01T08:41:00;0.50;;;0.50;;
12892;SDS011;6514;48.606;9.222;2023-04-01T08:43:41;1.13;;;0.60;;
12892;SDS011;6514;48.606;9.222;2023-04-01T08:49:32;1.47;;;0.60;;
12892;SDS011;6514;48.606;9.222;2023-04-01T08:52:16;2.17;;;0.60;;
12892;SDS011;6514;48.606;9.222;2023-04-01T08:54:55;0.80;;;0.50;;
12892;SDS011;6514;48.606;9.222;2023-04-01T08:57:35;2.00;;;0.70;;
12892;SDS011;6514;48.606;9.222;2023-04-01T09:00:13;0.90;;;0.50;;
12892;SDS011;6514;48.606;9.222;2023-04-01T09:05:45;1.43;;;0.70;;
12892;SDS011;6514;48.606;9.222;2023-04-01T09:08:35;2.43;;;0.90;;
12892;SDS011;6514;48.606;9.222;2023-04-01T09:11:12;1.10;;;0.80;;
12892;SDS011;6514;48.606;9.222;2023-04-01T09:13:55;2.27;;;0.80;;
12892;SDS011;6514;48.606;9.222;2023-04-01T09:16:53;2.00;;;1.33;;
12892;SDS011;6514;48.606;9.222;2023-04-01T09:19:37;1.43;;;1.00;;
12892;SDS011;6514;48.606;9.222;2023-04-01T09:22:25;1.87;;;0.80;;
12892;SDS011;6514;48.606;9.222;2023-04-01T09:25:15;2.47;;;0.80;;
12892;SDS011;6514;48.606;9.222;2023-04-01T09:27:54;0.97;;;0.57;;
12892;SDS011;6514;48.606;9.222;2023-04-01T09:33:33;1.20;;;0.80;;
12892;SDS011;6514;48.606;9.222;2023-04-01T09:36:25;0.60;;;0.60;;
12892;SDS011;6514;48.606;9.222;2023-04-01T09:39:13;1.20;;;0.80;;
12892;SDS011;6514;48.606;9.222;2023-04-01T09:42:07;1.83;;;0.70;;
12892;SDS011;6514;48.606;9.222;2023-04-01T09:44:57;1.63;;;0.90;;
12892;SDS011;6514;48.606;9.222;2023-04-01T09:47:31;1.80;;;1.20;;
12892;SDS011;6514;48.606;9.222;2023-04-01T09:50:14;1.03;;;0.70;;
12892;SDS011;6514;48.606;9.222;2023-04-01T09:52:54;2.40;;;1.37;;
12892;SDS011;6514;48.606;9.222;2023-04-01T09:55:47;2.07;;;1.83;;
12892;SDS011;6514;48.606;9.222;2023-04-01T10:08:07;0.97;;;0.50;;
12892;SDS011;6514;48.606;9.222;2023-04-01T10:11:01;1.83;;;0.80;;
12892;SDS011;6514;48.606;9.222;2023-04-01T10:14:00;1.23;;;0.70;;
12892;SDS011;6514;48.606;9.222;2023-04-01T10:16:50;1.27;;;0.63;;
12892;SDS011;6514;48.606;9.222;2023-04-01T10:22:56;0.80;;;0.80;;
12892;SDS011;6514;48.606;9.222;2023-04-01T10:25:50;1.70;;;0.60;;
12892;SDS011;6514;48.606;9.222;2023-04-01T10:28:42;1.43;;;0.70;;
12892;SDS011;6514;48.606;9.222;2023-04-01T10:47:18;0.67;;;0.40;;
12892;SDS011;6514;48.606;9.222;2023-04-01T10:56:12;0.73;;;0.50;;
12892;SDS011;6514;48.606;9.222;2023-04-01T11:18:11;0.77;;;0.60;;
12892;SDS011;6514;48.606;9.222;2023-04-01T11:21:21;0.97;;;0.40;;
12892;SDS011;6514;48.606;9.222;2023-04-01T11:27:38;1.37;;;0.40;;
12892;SDS011;6514;48.606;9.222;2023-04-01T11:30:19;0.40;;;0.40;;
12892;SDS011;6514;48.606;9.222;2023-04-01T11:32:57;0.60;;;0.60;;
12892;SDS011;6514;48.606;9.222;2023-04-01T11:35:40;0.43;;;0.40;;
12892;SDS011;6514;48.606;9.222;2023-04-01T11:38:35;0.77;;;0.40;;
12892;SDS011;6514;48.606;9.222;2023-04-01T11:41:20;0.60;;;0.50;;
12892;SDS011;6514;48.606;9.222;2023-04-01T11:43:58;0.37;;;0.30;;
12892;SDS011;6514;48.606;9.222;2023-04-01T11:46:39;0.77;;;0.50;;
12892;SDS011;6514;48.606;9.222;2023-04-01T11:49:23;0.40;;;0.40;;
12892;SDS011;6514;48.606;9.222;2023-04-01T11:52:03;0.50;;;0.50;;
12892;SDS011;6514;48.606;9.222;2023-04-01T11:54:43;0.73;;;0.40;;
12892;SDS011;6514;48.606;9.222;2023-04-01T11:57:39;0.40;;;0.40;;
12892;SDS011;6514;48.606;9.222;2023-04-01T12:00:20;0.40;;;0.40;;
12892;SDS011;6514;48.606;9.222;2023-04-01T12:03:01;0.40;;;0.40;;
12892;SDS011;6514;48.606;9.222;2023-04-01T12:05:44;0.50;;;0.50;;
12892;SDS011;6514;48.606;9.222;2023-04-01T12:08:22;0.67;;;0.40;;
12892;SDS011;6514;48.606;9.222;2023-04-01T12:10:59;0.43;;;0.43;;
12892;SDS011;6514;48.606;9.222;2023-04-01T12:13:35;0.87;;;0.50;;
12892;SDS011;6514;48.606;9.222;2023-04-01T12:19:07;1.30;;;0.50;;
12892;SDS011;6514;48.606;9.222;2023-04-01T12:21:43;1.33;;;0.60;;
12892;SDS011;6514;48.606;9.222;2023-04-01T12:24:29;0.50;;;0.50;;
12892;SDS011;6514;48.606;9.222;2023-04-01T12:27:14;0.40;;;0.37;;
12892;SDS011;6514;48.606;9.222;2023-04-01T12:33:12;1.03;;;0.50;;
12892;SDS011;6514;48.606;9.222;2023-04-01T12:35:53;0.63;;;0.43;;
12892;SDS011;6514;48.606;9.222;2023-04-01T12:38:29;0.53;;;0.50;;
12892;SDS011;6514;48.606;9.222;2023-04-01T12:41:14;0.37;;;0.37;;
12892;SDS011;6514;48.606;9.222;2023-04-01T12:46:42;0.50;;;0.50;;
12892;SDS011;6514;48.606;9.222;2023-04-01T12:49:31;0.40;;;0.40;;
12892;SDS011;6514;48.606;9.222;2023-04-01T12:52:13;0.57;;;0.30;;
12892;SDS011;6514;48.606;9.222;2023-04-01T12:55:05;0.83;;;0.37;;
12892;SDS011;6514;48.606;9.222;2023-04-01T12:57:55;0.50;;;0.50;;
12892;SDS011;6514;48.606;9.222;2023-04-01T13:00:48;0.30;;;0.30;;
12892;SDS011;6514;48.606;9.222;2023-04-01T13:03:32;0.53;;;0.40;;
12892;SDS011;6514;48.606;9.222;2023-04-01T13:06:25;1.17;;;0.37;;
12892;SDS011;6514;48.606;9.222;2023-04-01T13:09:11;0.63;;;0.40;;
12892;SDS011;6514;48.606;9.222;2023-04-01T13:11:49;0.30;;;0.30;;
12892;SDS011;6514;48.606;9.222;2023-04-01T13:14:32;0.77;;;0.30;;
12892;SDS011;6514;48.606;9.222;2023-04-01T13:17:10;0.37;;;0.37;;
12892;SDS011;6514;48.606;9.222;2023-04-01T13:19:44;0.40;;;0.40;;
12892;SDS011;6514;48.606;9.222;2023-04-01T13:22:17;0.30;;;0.30;;
12892;SDS011;6514;48.606;9.222;2023-04-01T13:24:53;0.40;;;0.40;;
12892;SDS011;6514;48.606;9.222;2023-04-01T13:27:29;0.40;;;0.40;;
12892;SDS011;6514;48.606;9.222;2023-04-01T13:30:08;0.50;;;0.40;;
12892;SDS011;6514;48.606;9.222;2023-04-01T13:32:47;0.63;;;0.40;;
12892;SDS011;6514;48.606;9.222;2023-04-01T13:35:27;0.30;;;0.30;;
12892;SDS011;6514;48.606;9.222;2023-04-01T13:38:10;0.40;;;0.40;;
12892;SDS011;6514;48.606;9.222;2023-04-01T13:41:09;1.07;;;0.60;;
12892;SDS011;6514;48.606;9.222;2023-04-01T13:43:49;0.57;;;0.57;;
12892;SDS011;6514;48.606;9.222;2023-04-01T13:46:33;0.57;;;0.57;;
12892;SDS011;6514;48.606;9.222;2023-04-01T13:49:38;1.10;;;0.60;;
12892;SDS011;6514;48.606;9.222;2023-04-01T14:01:48;1.23;;;0.40;;
12892;SDS011;6514;48.606;9.222;2023-04-01T14:04:27;0.70;;;0.50;;
12892;SDS011;6514;48.606;9.222;2023-04-01T14:07:31;1.07;;;0.40;;
12892;SDS011;6514;48.606;9.222;2023-04-01T14:10:08;0.43;;;0.43;;
12892;SDS011;6514;48.606;9.222;2023-04-01T14:12:46;0.53;;;0.30;;
12892;SDS011;6514;48.606;9.222;2023-04-01T14:15:28;0.97;;;0.50;;
12892;SDS011;6514;48.606;9.222;2023-04-01T14:18:22;0.30;;;0.30;;
12892;SDS011;6514;48.606;9.222;2023-04-01T14:21:13;0.43;;;0.43;;
12892;SDS011;6514;48.606;9.222;2023-04-01T14:23:57;0.60;;;0.57;;
12892;SDS011;6514;48.606;9.222;2023-04-01T14:26:50;0.40;;;0.40;;
12892;SDS011;6514;48.606;9.222;2023-04-01T14:29:38;0.47;;;0.40;;
12892;SDS011;6514;48.606;9.222;2023-04-01T14:32:16;0.60;;;0.50;;
12892;SDS011;6514;48.606;9.222;2023-04-01T14:34:59;1.30;;;0.40;;
12892;SDS011;6514;48.606;9.222;2023-04-01T14:37:58;0.67;;;0.60;;
12892;SDS011;6514;48.606;9.222;2023-04-01T14:40:48;0.77;;;0.40;;
12892;SDS011;6514;48.606;9.222;2023-04-01T14:46:39;0.87;;;0.40;;
12892;SDS011;6514;48.606;9.222;2023-04-01T14:49:34;0.60;;;0.53;;
12892;SDS011;6514;48.606;9.222;2023-04-01T14:52:09;1.63;;;0.60;;
12892;SDS011;6514;48.606;9.222;2023-04-01T14:54:41;0.67;;;0.30;;
12892;SDS011;6514;48.606;9.222;2023-04-01T14:57:11;0.30;;;0.30;;
12892;SDS011;6514;48.606;9.222;2023-04-01T14:59:39;0.97;;;0.50;;
12892;SDS011;6514;48.606;9.222;2023-04-01T15:02:11;0.77;;;0.60;;
12892;SDS011;6514;48.606;9.222;2023-04-01T15:04:56;0.50;;;0.50;;
12892;SDS011;6514;48.606;9.222;2023-04-01T15:10:32;0.40;;;0.40;;
12892;SDS011;6514;48.606;9.222;2023-04-01T15:13:12;0.47;;;0.47;;
12892;SDS011;6514;48.606;9.222;2023-04-01T15:15:46;1.80;;;0.57;;
12892;SDS011;6514;48.606;9.222;2023-04-01T15:18:27;0.93;;;0.30;;
12892;SDS011;6514;48.606;9.222;2023-04-01T15:21:11;0.60;;;0.40;;
12892;SDS011;6514;48.606;9.222;2023-04-01T15:23:53;0.50;;;0.50;;
12892;SDS011;6514;48.606;9.222;2023-04-01T15:26:32;1.27;;;0.60;;
12892;SDS011;6514;48.606;9.222;2023-04-01T15:32:10;2.40;;;0.90;;
12892;SDS011;6514;48.606;9.222;2023-04-01T15:34:45;0.50;;;0.50;;
12892;SDS011;6514;48.606;9.222;2023-04-01T15:37:18;1.83;;;0.63;;
12892;SDS011;6514;48.606;9.222;2023-04-01T15:40:00;1.37;;;0.60;;
12892;SDS011;6514;48.606;9.222;2023-04-01T15:42:43;1.43;;;0.50;;
12892;SDS011;6514;48.606;9.222;2023-04-01T15:45:35;0.77;;;0.50;;
12892;SDS011;6514;48.606;9.222;2023-04-01T15:48:14;1.27;;;0.60;;
12892;SDS011;6514;48.606;9.222;2023-04-01T15:50:59;0.60;;;0.60;;
12892;SDS011;6514;48.606;9.222;2023-04-01T15:53:35;0.57;;;0.53;;
12892;SDS011;6514;48.606;9.222;2023-04-01T15:59:09;0.67;;;0.50;;
12892;SDS011;6514;48.606;9.222;2023-04-01T16:01:47;0.77;;;0.50;;
12892;SDS011;6514;48.606;9.222;2023-04-01T16:04:27;0.70;;;0.50;;
12892;SDS011;6514;48.606;9.222;2023-04-01T16:07:10;0.93;;;0.60;;
12892;SDS011;6514;48.606;9.222;2023-04-01T16:09:55;1.37;;;0.50;;
12892;SDS011;6514;48.606;9.222;2023-04-01T16:12:40;0.50;;;0.50;;
12892;SDS011;6514;48.606;9.222;2023-04-01T16:15:18;1.17;;;0.60;;
12892;SDS011;6514;48.606;9.222;2023-04-01T16:20:50;0.87;;;0.60;;
12892;SDS011;6514;48.606;9.222;2023-04-01T16:23:22;0.57;;;0.50;;
12892;SDS011;6514;48.606;9.222;2023-04-01T16:25:59;1.00;;;0.60;;
12892;SDS011;6514;48.606;9.222;2023-04-01T16:28:34;1.20;;;0.50;;
12892;SDS011;6514;48.606;9.222;2023-04-01T16:31:06;1.67;;;0.70;;
12892;SDS011;6514;48.606;9.222;2023-04-01T16:33:39;1.30;;;0.60;;
12892;SDS011;6514;48.606;9.222;2023-04-01T16:36:14;1.03;;;0.70;;
12892;SDS011;6514;48.606;9.222;2023-04-01T16:38:50;0.97;;;0.60;;
12892;SDS011;6514;48.606;9.222;2023-04-01T16:41:35;0.70;;;0.70;;
12892;SDS011;6514;48.606;9.222;2023-04-01T16:44:13;1.57;;;0.70;;
12892;SDS011;6514;48.606;9.222;2023-04-01T16:46:45;1.37;;;1.27;;
12892;SDS011;6514;48.606;9.222;2023-04-01T16:49:25;1.27;;;0.73;;
12892;SDS011;6514;48.606;9.222;2023-04-01T16:54:57;1.07;;;0.77;;
12892;SDS011;6514;48.606;9.222;2023-04-01T16:57:30;1.10;;;0.70;;
12892;SDS011;6514;48.606;9.222;2023-04-01T17:00:16;1.17;;;0.63;;
12892;SDS011;6514;48.606;9.222;2023-04-01T17:02:52;1.97;;;0.80;;
12892;SDS011;6514;48.606;9.222;2023-04-01T17:05:34;1.10;;;0.70;;
12892;SDS011;6514;48.606;9.222;2023-04-01T17:08:07;1.73;;;0.90;;
12892;SDS011;6514;48.606;9.222;2023-04-01T17:10:45;0.70;;;0.63;;
12892;SDS011;6514;48.606;9.222;2023-04-01T17:13:24;2.60;;;0.90;;
12892;SDS011;6514;48.606;9.222;2023-04-01T17:16:10;0.93;;;0.83;;
12892;SDS011;6514;48.606;9.222;2023-04-01T17:18:58;1.77;;;0.90;;
12892;SDS011;6514;48.606;9.222;2023-04-01T17:21:36;2.30;;;1.20;;
12892;SDS011;6514;48.606;9.222;2023-04-01T17:24:21;1.33;;;0.93;;
12892;SDS011;6514;48.606;9.222;2023-04-01T17:26:58;1.80;;;0.90;;
12892;SDS011;6514;48.606;9.222;2023-04-01T17:29:38;1.10;;;0.90;;
12892;SDS011;6514;48.606;9.222;2023-04-01T17:32:12;2.03;;;0.70;;
12892;SDS011;6514;48.606;9.222;2023-04-01T17:34:52;0.70;;;0.70;;
12892;SDS011;6514;48.606;9.222;2023-04-01T17:37:28;1.50;;;0.70;;
12892;SDS011;6514;48.606;9.222;2023-04-01T17:40:15;1.03;;;0.70;;
12892;SDS011;6514;48.606;9.222;2023-04-01T17:42:57;2.23;;;1.00;;
12892;SDS011;6514;48.606;9.222;2023-04-01T17:45:34;1.20;;;0.83;;
12892;SDS011;6514;48.606;9.222;2023-04-01T17:48:14;0.93;;;0.80;;